sensor_id;sensor_type;location;lat;lon;timestamp;pressure;altitude;pressure_sealevel;temperature;humidity
40073;BME280;25774;52.256;9.356;2023-02-15T00:01:31;101820.88;;;2.33;100.00
40073;BME280;25774;52.256;9.356;2023-02-15T00:03:57;101806.94;;;2.02;100.00
40073;BME280;25774;52.256;9.356;2023-02-15T00:06:23;101827.78;;;2.23;100.00
40073;BME280;25774;52.256;9.356;2023-02-15T00:08:49;101841.72;;;2.44;100.00
40073;BME280;25774;52.256;9.356;2023-02-15T00:11:16;101829.56;;;2.37;100.00
40073;BME280;25774;52.256;9.356;2023-02-15T00:14:02;101829.53;;;2.18;100.00
40073;BME280;25774;52.256;9.356;2023-02-15T00:16:28;101834.75;;;2.29;100.00
40073;BME280;25774;52.256;9.356;2023-02-15T00:18:53;101829.50;;;2.14;100.00
40073;BME280;25774;52.256;9.356;2023-02-15T00:21:18;101819.97;;;2.05;100.00
40073;BME280;25774;52.256;9.356;2023-02-15T00:23:44;101824.28;;;2.06;100.00
40073;BME280;25774;52.256;9.356;2023-02-15T00:26:11;101822.59;;;2.17;100.00
40073;BME280;25774;52.256;9.356;2023-02-15T00:28:37;101815.56;;;1.90;100.00
40073;BME280;25774;52.256;9.356;2023-02-15T00:31:08;101819.06;;;2.03;100.00
40073;BME280;25774;52.256;9.356;2023-02-15T00:33:34;101816.44;;;1.94;100.00
40073;BME280;25774;52.256;9.356;2023-02-15T00:36:00;101800.75;;;1.69;100.00
40073;BME280;25774;52.256;9.356;2023-02-15T00:38:27;101800.72;;;1.63;100.00
40073;BME280;25774;52.256;9.356;2023-02-15T00:40:55;101808.53;;;1.60;100.00
40073;BME280;25774;52.256;9.356;2023-02-15T00:43:21;101818.16;;;1.90;100.00
40073;BME280;25774;52.256;9.356;2023-02-15T00:45:47;101816.38;;;1.75;100.00
40073;BME280;25774;52.256;9.356;2023-02-15T00:48:14;101808.56;;;1.71;100.00
40073;BME280;25774;52.256;9.356;2023-02-15T00:50:39;101811.13;;;1.60;100.00
40073;BME280;25774;52.256;9.356;2023-02-15T00:53:05;101812.84;;;1.58;100.00
40073;BME280;25774;52.256;9.356;2023-02-15T00:55:30;101808.47;;;1.51;100.00
40073;BME280;25774;52.256;9.356;2023-02-15T00:57:55;101791.94;;;1.38;100.00
40073;BME280;25774;52.256;9.356;2023-02-15T01:00:21;101797.13;;;1.32;100.00
40073;BME280;25774;52.256;9.356;2023-02-15T01:02:47;101794.50;;;1.30;100.00
40073;BME280;25774;52.256;9.356;2023-02-15T01:05:14;101784.91;;;1.19;100.00
40073;BME280;25774;52.256;9.356;2023-02-15T01:07:39;101801.50;;;1.45;100.00
40073;BME280;25774;52.256;9.356;2023-02-15T01:10:06;101800.66;;;1.48;100.00
40073;BME280;25774;52.256;9.356;2023-02-15T01:12:31;101805.00;;;1.49;100.00
40073;BME280;25774;52.256;9.356;2023-02-15T01:14:57;101803.22;;;1.40;100.00
40073;BME280;25774;52.256;9.356;2023-02-15T01:17:22;101810.19;;;1.46;100.00
40073;BME280;25774;52.256;9.356;2023-02-15T01:19:48;101802.38;;;1.43;100.00
40073;BME280;25774;52.256;9.356;2023-02-15T01:22:13;101819.84;;;1.70;100.00
40073;BME280;25774;52.256;9.356;2023-02-15T01:24:39;101801.56;;;1.54;100.00
40073;BME280;25774;52.256;9.356;2023-02-15T01:27:04;101818.16;;;1.79;100.00
40073;BME280;25774;52.256;9.356;2023-02-15T01:29:30;101804.19;;;1.62;100.00
40073;BME280;25774;52.256;9.356;2023-02-15T01:31:55;101810.31;;;1.73;100.00
40073;BME280;25774;52.256;9.356;2023-02-15T01:34:20;101799.84;;;1.62;100.00
40073;BME280;25774;52.256;9.356;2023-02-15T01:36:46;101800.69;;;1.55;100.00
40073;BME280;25774;52.256;9.356;2023-02-15T01:39:11;101796.31;;;1.47;100.00
40073;BME280;25774;52.256;9.356;2023-02-15T01:41:36;101791.97;;;1.46;100.00
40073;BME280;25774;52.256;9.356;2023-02-15T01:44:03;101797.19;;;1.49;100.00
40073;BME280;25774;52.256;9.356;2023-02-15T01:46:40;101794.66;;;1.61;100.00
40073;BME280;25774;52.256;9.356;2023-02-15T01:49:16;101794.59;;;1.52;100.00
40073;BME280;25774;52.256;9.356;2023-02-15T01:51:45;101794.56;;;1.41;100.00
40073;BME280;25774;52.256;9.356;2023-02-15T01:54:24;101796.31;;;1.47;100.00
40073;BME280;25774;52.256;9.356;2023-02-15T01:56:52;101790.25;;;1.45;100.00
40073;BME280;25774;52.256;9.356;2023-02-15T01:59:21;101800.66;;;1.48;100.00
40073;BME280;25774;52.256;9.356;2023-02-15T02:01:49;101796.31;;;1.45;100.00
40073;BME280;25774;52.256;9.356;2023-02-15T02:04:32;101794.53;;;1.39;100.00
40073;BME280;25774;52.256;9.356;2023-02-15T02:07:02;101790.09;;;1.17;100.00
40073;BME280;25774;52.256;9.356;2023-02-15T02:09:27;101793.66;;;1.34;100.00
40073;BME280;25774;52.256;9.356;2023-02-15T02:11:53;101799.72;;;1.36;100.00
40073;BME280;25774;52.256;9.356;2023-02-15T02:14:20;101793.69;;;1.41;100.00
40073;BME280;25774;52.256;9.356;2023-02-15T02:25:35;101777.16;;;1.26;100.00
40073;BME280;25774;52.256;9.356;2023-02-15T02:31:19;101786.72;;;1.32;100.00
40073;BME280;25774;52.256;9.356;2023-02-15T02:33:53;101787.47;;;1.11;100.00
40073;BME280;25774;52.256;9.356;2023-02-15T02:36:35;101784.03;;;1.20;100.00
40073;BME280;25774;52.256;9.356;2023-02-15T02:39:20;101794.53;;;1.36;100.00
40073;BME280;25774;52.256;9.356;2023-02-15T02:41:55;101782.38;;;1.37;100.00
40073;BME280;25774;52.256;9.356;2023-02-15T02:47:16;101782.41;;;1.43;100.00
40073;BME280;25774;52.256;9.356;2023-02-15T02:49:45;101774.56;;;1.34;100.00
40073;BME280;25774;52.256;9.356;2023-02-15T02:55:02;101748.50;;;1.15;100.00
40073;BME280;25774;52.256;9.356;2023-02-15T02:57:31;101747.59;;;1.09;100.00
40073;BME280;25774;52.256;9.356;2023-02-15T02:59:58;101752.84;;;1.21;100.00
40073;BME280;25774;52.256;9.356;2023-02-15T03:02:27;101751.13;;;1.19;100.00
40073;BME280;25774;52.256;9.356;2023-02-15T03:05:01;101736.31;;;1.08;100.00
40073;BME280;25774;52.256;9.356;2023-02-15T03:07:29;101738.88;;;1.05;100.00
40073;BME280;25774;52.256;9.356;2023-02-15T03:09:57;101739.78;;;1.07;100.00
40073;BME280;25774;52.256;9.356;2023-02-15T03:12:28;101731.09;;;0.99;100.00
40073;BME280;25774;52.256;9.356;2023-02-15T03:17:32;101729.28;;;0.90;100.00
40073;BME280;25774;52.256;9.356;2023-02-15T03:20:01;101740.59;;;0.99;100.00
40073;BME280;25774;52.256;9.356;2023-02-15T03:22:35;101747.63;;;1.12;100.00
40073;BME280;25774;52.256;9.356;2023-02-15T03:25:06;101752.81;;;1.12;100.00
40073;BME280;25774;52.256;9.356;2023-02-15T03:27:38;101754.56;;;1.19;100.00
40073;BME280;25774;52.256;9.356;2023-02-15T03:30:07;101750.28;;;1.26;100.00
40073;BME280;25774;52.256;9.356;2023-02-15T03:32:35;101745.88;;;1.14;100.00
40073;BME280;25774;52.256;9.356;2023-02-15T03:35:02;101737.19;;;1.06;100.00
40073;BME280;25774;52.256;9.356;2023-02-15T03:37:35;101745.91;;;1.20;100.00
40073;BME280;25774;52.256;9.356;2023-02-15T03:40:19;101738.06;;;1.11;100.00
40073;BME280;25774;52.256;9.356;2023-02-15T03:43:15;101731.06;;;1.01;100.00
40073;BME280;25774;52.256;9.356;2023-02-15T03:45:45;101717.13;;;0.85;100.00
40073;BME280;25774;52.256;9.356;2023-02-15T03:48:30;101737.19;;;1.07;100.00
40073;BME280;25774;52.256;9.356;2023-02-15T03:51:02;101728.41;;;0.91;100.00
40073;BME280;25774;52.256;9.356;2023-02-15T03:53:50;101730.19;;;0.99;100.00
40073;BME280;25774;52.256;9.356;2023-02-15T03:56:16;101721.41;;;0.80;100.00
40073;BME280;25774;52.256;9.356;2023-02-15T03:58:41;101733.63;;;0.90;100.00
40073;BME280;25774;52.256;9.356;2023-02-15T04:01:30;101731.84;;;0.86;100.00
40073;BME280;25774;52.256;9.356;2023-02-15T04:04:19;101742.38;;;1.06;100.00
40073;BME280;25774;52.256;9.356;2023-02-15T04:06:45;101744.13;;;1.10;100.00
40073;BME280;25774;52.256;9.356;2023-02-15T04:09:13;101732.81;;;1.05;100.00
40073;BME280;25774;52.256;9.356;2023-02-15T04:11:57;101742.31;;;0.97;100.00
40073;BME280;25774;52.256;9.356;2023-02-15T04:14:22;101737.09;;;0.93;100.00
40073;BME280;25774;52.256;9.356;2023-02-15T04:17:07;101740.59;;;0.99;100.00
40073;BME280;25774;52.256;9.356;2023-02-15T04:19:33;101751.00;;;0.97;100.00
40073;BME280;25774;52.256;9.356;2023-02-15T04:22:17;101754.50;;;1.08;100.00
40073;BME280;25774;52.256;9.356;2023-02-15T04:25:01;101744.09;;;0.99;100.00
40073;BME280;25774;52.256;9.356;2023-02-15T04:27:43;101740.53;;;0.83;100.00
40073;BME280;25774;52.256;9.356;2023-02-15T04:30:11;101744.00;;;0.87;100.00
40073;BME280;25774;52.256;9.356;2023-02-15T04:32:39;101726.56;;;0.67;100.00
40073;BME280;25774;52.256;9.356;2023-02-15T04:35:06;101720.41;;;0.56;100.00
40073;BME280;25774;52.256;9.356;2023-02-15T04:37:32;101712.66;;;0.58;100.00
40073;BME280;25774;52.256;9.356;2023-02-15T04:39:58;101717.94;;;0.76;100.00
40073;BME280;25774;52.256;9.356;2023-02-15T04:42:24;101717.00;;;0.66;100.00
40073;BME280;25774;52.256;9.356;2023-02-15T04:44:50;101710.03;;;0.56;100.00
40073;BME280;25774;52.256;9.356;2023-02-15T04:47:16;101713.50;;;0.60;100.00
40073;BME280;25774;52.256;9.356;2023-02-15T04:49:41;101721.34;;;0.66;100.00
40073;BME280;25774;52.256;9.356;2023-02-15T04:52:06;101718.81;;;0.77;100.00
40073;BME280;25774;52.256;9.356;2023-02-15T04:54:32;101708.25;;;0.52;100.00
40073;BME280;25774;52.256;9.356;2023-02-15T04:56:58;101703.88;;;0.46;100.00
40073;BME280;25774;52.256;9.356;2023-02-15T04:59:23;101712.63;;;0.56;100.00
40073;BME280;25774;52.256;9.356;2023-02-15T05:01:49;101712.56;;;0.45;100.00
40073;BME280;25774;52.256;9.356;2023-02-15T05:04:14;101704.69;;;0.36;100.00
40073;BME280;25774;52.256;9.356;2023-02-15T05:06:40;101712.44;;;0.33;100.00
40073;BME280;25774;52.256;9.356;2023-02-15T05:09:05;101708.19;;;0.44;100.00
40073;BME280;25774;52.256;9.356;2023-02-15T05:11:30;101715.88;;;0.31;100.00
40073;BME280;25774;52.256;9.356;2023-02-15T05:13:56;101711.38;;;0.08;100.00
40073;BME280;25774;52.256;9.356;2023-02-15T05:16:23;101720.13;;;0.21;100.00
40073;BME280;25774;52.256;9.356;2023-02-15T05:18:48;101722.66;;;0.12;100.00
40073;BME280;25774;52.256;9.356;2023-02-15T05:21:14;101731.38;;;0.17;100.00
40073;BME280;25774;52.256;9.356;2023-02-15T05:23:41;101749.59;;;0.25;100.00
40073;BME280;25774;52.256;9.356;2023-02-15T05:26:17;101763.59;;;0.42;100.00
40073;BME280;25774;52.256;9.356;2023-02-15T05:29:01;101752.22;;;0.26;100.00
40073;BME280;25774;52.256;9.356;2023-02-15T05:31:27;101765.25;;;0.34;100.00
40073;BME280;25774;52.256;9.356;2023-02-15T05:33:52;101759.16;;;0.32;100.00
40073;BME280;25774;52.256;9.356;2023-02-15T05:36:17;101760.03;;;0.31;100.00
40073;BME280;25774;52.256;9.356;2023-02-15T05:38:43;101762.69;;;0.35;100.00
40073;BME280;25774;52.256;9.356;2023-02-15T05:41:10;101780.91;;;0.44;100.00
40073;BME280;25774;52.256;9.356;2023-02-15T05:43:36;101794.94;;;0.62;100.00
40073;BME280;25774;52.256;9.356;2023-02-15T05:46:03;101782.81;;;0.61;100.00
40073;BME280;25774;52.256;9.356;2023-02-15T05:48:29;101790.59;;;0.61;100.00
40073;BME280;25774;52.256;9.356;2023-02-15T05:51:07;101794.22;;;0.86;100.00
40073;BME280;25774;52.256;9.356;2023-02-15T05:53:35;101783.66;;;0.63;100.00
40073;BME280;25774;52.256;9.356;2023-02-15T05:56:01;101783.69;;;0.66;100.00
40073;BME280;25774;52.256;9.356;2023-02-15T05:58:38;101793.38;;;0.87;100.00
40073;BME280;25774;52.256;9.356;2023-02-15T06:01:08;101791.56;;;0.74;100.00
40073;BME280;25774;52.256;9.356;2023-02-15T06:03:34;101792.41;;;0.71;100.00
40073;BME280;25774;52.256;9.356;2023-02-15T06:06:02;101807.16;;;0.75;100.00
40073;BME280;25774;52.256;9.356;2023-02-15T06:08:30;101796.78;;;0.80;100.00
40073;BME280;25774;52.256;9.356;2023-02-15T06:10:56;101802.88;;;0.82;100.00
40073;BME280;25774;52.256;9.356;2023-02-15T06:13:21;101800.19;;;0.71;100.00
40073;BME280;25774;52.256;9.356;2023-02-15T06:15:48;101794.09;;;0.69;100.00
40073;BME280;25774;52.256;9.356;2023-02-15T06:18:13;101803.78;;;0.88;100.00
40073;BME280;25774;52.256;9.356;2023-02-15T06:20:38;101787.06;;;0.54;100.00
40073;BME280;25774;52.256;9.356;2023-02-15T06:23:04;101795.91;;;0.79;100.00
40073;BME280;25774;52.256;9.356;2023-02-15T06:25:29;101800.34;;;0.89;100.00
40073;BME280;25774;52.256;9.356;2023-02-15T06:27:54;101794.19;;;0.81;100.00
40073;BME280;25774;52.256;9.356;2023-02-15T06:30:20;101790.69;;;0.75;100.00
40073;BME280;25774;52.256;9.356;2023-02-15T06:32:45;101790.69;;;0.76;100.00
40073;BME280;25774;52.256;9.356;2023-02-15T06:35:10;101791.47;;;0.61;100.00
40073;BME280;25774;52.256;9.356;2023-02-15T06:37:36;101798.50;;;0.75;100.00
40073;BME280;25774;52.256;9.356;2023-02-15T06:40:02;101809.72;;;0.72;100.00
40073;BME280;25774;52.256;9.356;2023-02-15T06:42:29;101807.88;;;0.59;100.00
40073;BME280;25774;52.256;9.356;2023-02-15T06:44:54;101827.22;;;0.95;100.00
40073;BME280;25774;52.256;9.356;2023-02-15T06:47:20;101813.28;;;0.83;100.00
40073;BME280;25774;52.256;9.356;2023-02-15T06:49:45;101822.91;;;0.98;100.00
40073;BME280;25774;52.256;9.356;2023-02-15T06:52:11;101826.38;;;1.02;100.00
40073;BME280;25774;52.256;9.356;2023-02-15T06:54:37;101830.88;;;1.27;100.00
40073;BME280;25774;52.256;9.356;2023-02-15T06:57:02;101828.19;;;1.09;100.00
40073;BME280;25774;52.256;9.356;2023-02-15T06:59:27;101827.28;;;1.05;100.00
40073;BME280;25774;52.256;9.356;2023-02-15T07:01:53;101817.69;;;0.98;100.00
40073;BME280;25774;52.256;9.356;2023-02-15T07:04:18;101828.16;;;1.04;100.00
40073;BME280;25774;52.256;9.356;2023-02-15T07:06:43;101819.47;;;1.04;100.00
40073;BME280;25774;52.256;9.356;2023-02-15T07:09:08;101822.13;;;1.10;100.00
40073;BME280;25774;52.256;9.356;2023-02-15T07:11:34;101838.72;;;1.33;100.00
40073;BME280;25774;52.256;9.356;2023-02-15T07:14:18;101833.53;;;1.32;100.00
40073;BME280;25774;52.256;9.356;2023-02-15T07:16:44;101821.31;;;1.19;100.00
40073;BME280;25774;52.256;9.356;2023-02-15T07:19:10;101812.63;;;1.12;100.00
40073;BME280;25774;52.256;9.356;2023-02-15T07:21:36;101813.50;;;1.17;100.00
40073;BME280;25774;52.256;9.356;2023-02-15T07:24:02;101798.66;;;0.99;100.00
40073;BME280;25774;52.256;9.356;2023-02-15T07:26:27;101799.50;;;0.98;100.00
40073;BME280;25774;52.256;9.356;2023-02-15T07:28:53;101804.63;;;0.86;100.00
40073;BME280;25774;52.256;9.356;2023-02-15T07:31:18;101816.09;;;1.12;100.00
40073;BME280;25774;52.256;9.356;2023-02-15T07:33:43;101825.69;;;1.30;100.00
40073;BME280;25774;52.256;9.356;2023-02-15T07:36:09;101823.19;;;1.46;100.00
40073;BME280;25774;52.256;9.356;2023-02-15T07:38:38;101804.78;;;1.06;100.00
40073;BME280;25774;52.256;9.356;2023-02-15T07:41:09;101809.25;;;1.31;100.00
40073;BME280;25774;52.256;9.356;2023-02-15T07:43:36;101811.91;;;1.42;100.00
40073;BME280;25774;52.256;9.356;2023-02-15T07:46:04;101811.00;;;1.35;100.00
40073;BME280;25774;52.256;9.356;2023-02-15T07:48:31;101818.94;;;1.65;100.00
40073;BME280;25774;52.256;9.356;2023-02-15T07:51:00;101798.91;;;1.47;100.00
40073;BME280;25774;52.256;9.356;2023-02-15T07:53:26;101783.97;;;1.03;100.00
40073;BME280;25774;52.256;9.356;2023-02-15T07:55:51;101776.13;;;0.97;100.00
40073;BME280;25774;52.256;9.356;2023-02-15T07:58:18;101778.72;;;1.01;100.00
40073;BME280;25774;52.256;9.356;2023-02-15T08:00:44;101774.44;;;1.11;100.00
40073;BME280;25774;52.256;9.356;2023-02-15T08:03:25;101775.38;;;1.21;100.00
40073;BME280;25774;52.256;9.356;2023-02-15T08:05:56;101786.69;;;1.26;100.00
40073;BME280;25774;52.256;9.356;2023-02-15T08:08:23;101783.19;;;1.24;100.00
40073;BME280;25774;52.256;9.356;2023-02-15T08:13:54;101813.84;;;1.94;100.00
40073;BME280;25774;52.256;9.356;2023-02-15T08:16:39;101806.91;;;1.96;100.00
40073;BME280;25774;52.256;9.356;2023-02-15T08:19:22;101788.69;;;2.00;100.00
40073;BME280;25774;52.256;9.356;2023-02-15T08:21:51;101777.38;;;1.91;100.00
40073;BME280;25774;52.256;9.356;2023-02-15T08:24:19;101759.06;;;1.54;100.00
40073;BME280;25774;52.256;9.356;2023-02-15T08:26:44;101766.91;;;1.71;100.00
40073;BME280;25774;52.256;9.356;2023-02-15T08:29:12;101765.16;;;1.62;100.00
40073;BME280;25774;52.256;9.356;2023-02-15T08:31:38;101760.81;;;1.61;100.00
40073;BME280;25774;52.256;9.356;2023-02-15T08:34:06;101760.88;;;1.73;100.00
40073;BME280;25774;52.256;9.356;2023-02-15T08:36:31;101751.28;;;1.57;100.00
40073;BME280;25774;52.256;9.356;2023-02-15T08:38:58;101749.53;;;1.65;100.00
40073;BME280;25774;52.256;9.356;2023-02-15T08:41:24;101758.22;;;1.64;100.00
40073;BME280;25774;52.256;9.356;2023-02-15T08:43:52;101759.13;;;1.69;100.00
40073;BME280;25774;52.256;9.356;2023-02-15T08:46:23;101757.38;;;1.70;100.00
40073;BME280;25774;52.256;9.356;2023-02-15T08:48:49;101746.13;;;1.69;100.00
40073;BME280;25774;52.256;9.356;2023-02-15T08:51:17;101764.41;;;2.01;100.00
40073;BME280;25774;52.256;9.356;2023-02-15T08:53:46;101738.28;;;1.71;100.00
40073;BME280;25774;52.256;9.356;2023-02-15T08:56:14;101743.50;;;1.75;100.00
40073;BME280;25774;52.256;9.356;2023-02-15T08:58:41;101769.63;;;2.26;100.00
40073;BME280;25774;52.256;9.356;2023-02-15T09:01:13;101757.47;;;2.05;100.00
40073;BME280;25774;52.256;9.356;2023-02-15T09:03:39;101752.28;;;2.11;100.00
40073;BME280;25774;52.256;9.356;2023-02-15T09:06:05;101754.88;;;2.14;100.00
40073;BME280;25774;52.256;9.356;2023-02-15T09:08:31;101754.88;;;2.39;100.00
40073;BME280;25774;52.256;9.356;2023-02-15T09:11:07;101758.34;;;2.48;100.00
40073;BME280;25774;52.256;9.356;2023-02-15T09:13:33;101760.06;;;2.71;100.00
40073;BME280;25774;52.256;9.356;2023-02-15T09:16:03;101731.41;;;2.29;100.00
40073;BME280;25774;52.256;9.356;2023-02-15T09:18:34;101729.69;;;2.12;100.00
40073;BME280;25774;52.256;9.356;2023-02-15T09:21:12;101726.22;;;2.17;100.00
40073;BME280;25774;52.256;9.356;2023-02-15T09:23:41;101731.44;;;2.22;100.00
40073;BME280;25774;52.256;9.356;2023-02-15T09:26:09;101734.91;;;2.15;100.00
40073;BME280;25774;52.256;9.356;2023-02-15T09:28:36;101740.97;;;2.32;100.00
40073;BME280;25774;52.256;9.356;2023-02-15T09:31:13;101740.97;;;2.50;100.00
40073;BME280;25774;52.256;9.356;2023-02-15T09:33:39;101737.50;;;2.62;100.00
40073;BME280;25774;52.256;9.356;2023-02-15T09:36:05;101738.34;;;2.79;100.00
40073;BME280;25774;52.256;9.356;2023-02-15T09:38:37;101724.47;;;2.51;100.00
40073;BME280;25774;52.256;9.356;2023-02-15T09:41:10;101734.88;;;2.67;100.00
40073;BME280;25774;52.256;9.356;2023-02-15T09:43:49;101732.22;;;2.90;100.00
40073;BME280;25774;52.256;9.356;2023-02-15T09:46:36;101724.41;;;2.97;100.00
40073;BME280;25774;52.256;9.356;2023-02-15T09:56:58;101713.00;;;3.24;100.00
40073;BME280;25774;52.256;9.356;2023-02-15T10:02:17;101708.53;;;3.49;100.00
40073;BME280;25774;52.256;9.356;2023-02-15T10:05:14;101692.91;;;3.48;100.00
40073;BME280;25774;52.256;9.356;2023-02-15T10:10:41;101682.47;;;3.45;100.00
40073;BME280;25774;52.256;9.356;2023-02-15T10:16:10;101662.44;;;3.47;100.00
40073;BME280;25774;52.256;9.356;2023-02-15T10:18:53;101689.81;;;4.18;100.00
40073;BME280;25774;52.256;9.356;2023-02-15T10:26:45;101651.69;;;3.91;100.00
40073;BME280;25774;52.256;9.356;2023-02-15T10:29:27;101634.28;;;3.92;100.00
40073;BME280;25774;52.256;9.356;2023-02-15T10:32:22;101631.59;;;4.03;100.00
40073;BME280;25774;52.256;9.356;2023-02-15T10:34:58;101610.69;;;4.06;100.00
40073;BME280;25774;52.256;9.356;2023-02-15T10:51:57;101582.28;;;4.57;100.00
40073;BME280;25774;52.256;9.356;2023-02-15T10:57:25;101551.22;;;4.29;100.00
40073;BME280;25774;52.256;9.356;2023-02-15T11:00:05;101561.09;;;4.77;100.00
40073;BME280;25774;52.256;9.356;2023-02-15T11:02:50;101557.44;;;4.90;100.00
40073;BME280;25774;52.256;9.356;2023-02-15T11:08:43;101533.66;;;5.08;100.00
40073;BME280;25774;52.256;9.356;2023-02-15T11:11:15;101531.16;;;4.98;100.00
40073;BME280;25774;52.256;9.356;2023-02-15T11:13:48;101523.22;;;5.05;100.00
40073;BME280;25774;52.256;9.356;2023-02-15T11:16:21;101521.34;;;5.15;100.00
40073;BME280;25774;52.256;9.356;2023-02-15T11:19:08;101522.59;;;5.45;100.00
40073;BME280;25774;52.256;9.356;2023-02-15T11:21:39;101513.19;;;5.86;100.00
40073;BME280;25774;52.256;9.356;2023-02-15T11:26:57;101496.50;;;5.90;100.00
40073;BME280;25774;52.256;9.356;2023-02-15T11:32:14;101467.78;;;5.87;100.00
40073;BME280;25774;52.256;9.356;2023-02-15T11:34:59;101476.59;;;6.28;100.00
40073;BME280;25774;52.256;9.356;2023-02-15T11:37:36;101459.63;;;6.46;100.00
40073;BME280;25774;52.256;9.356;2023-02-15T11:40:15;101452.25;;;6.63;100.00
40073;BME280;25774;52.256;9.356;2023-02-15T11:42:43;101440.44;;;6.83;100.00
40073;BME280;25774;52.256;9.356;2023-02-15T11:45:26;101424.66;;;6.84;100.00
40073;BME280;25774;52.256;9.356;2023-02-15T11:47:53;101424.75;;;7.17;100.00
40073;BME280;25774;52.256;9.356;2023-02-15T11:50:29;101413.41;;;7.16;100.00
40073;BME280;25774;52.256;9.356;2023-02-15T11:53:02;101404.59;;;7.19;100.00
40073;BME280;25774;52.256;9.356;2023-02-15T11:55:29;101393.41;;;7.11;100.00
40073;BME280;25774;52.256;9.356;2023-02-15T11:58:16;101403.09;;;7.76;100.00
40073;BME280;25774;52.256;9.356;2023-02-15T12:00:48;101372.69;;;7.67;100.00
40073;BME280;25774;52.256;9.356;2023-02-15T12:03:21;101352.06;;;7.52;100.00
40073;BME280;25774;52.256;9.356;2023-02-15T12:05:53;101347.75;;;7.49;100.00
40073;BME280;25774;52.256;9.356;2023-02-15T12:08:22;101357.34;;;7.52;100.00
40073;BME280;25774;52.256;9.356;2023-02-15T12:11:07;101394.38;;;8.05;100.00
40073;BME280;25774;52.256;9.356;2023-02-15T12:13:53;101363.53;;;8.11;100.00
40073;BME280;25774;52.256;9.356;2023-02-15T12:16:19;101352.00;;;7.86;100.00
40073;BME280;25774;52.256;9.356;2023-02-15T12:18:46;101349.78;;;8.02;100.00
40073;BME280;25774;52.256;9.356;2023-02-15T12:21:15;101349.47;;;8.12;100.00
40073;BME280;25774;52.256;9.356;2023-02-15T12:23:53;101341.34;;;8.20;100.00
40073;BME280;25774;52.256;9.356;2023-02-15T12:26:26;101335.47;;;8.12;100.00
40073;BME280;25774;52.256;9.356;2023-02-15T12:28:55;101361.53;;;8.49;100.00
40073;BME280;25774;52.256;9.356;2023-02-15T12:31:28;101353.50;;;8.80;100.00
40073;BME280;25774;52.256;9.356;2023-02-15T12:33:57;101337.94;;;8.99;100.00
40073;BME280;25774;52.256;9.356;2023-02-15T12:36:44;101333.28;;;9.07;100.00
40073;BME280;25774;52.256;9.356;2023-02-15T12:39:19;101285.34;;;8.98;100.00
40073;BME280;25774;52.256;9.356;2023-02-15T12:41:57;101292.13;;;9.30;100.00
40073;BME280;25774;52.256;9.356;2023-02-15T12:44:30;101280.03;;;9.24;100.00
40073;BME280;25774;52.256;9.356;2023-02-15T12:47:03;101280.41;;;9.39;100.00
40073;BME280;25774;52.256;9.356;2023-02-15T12:49:30;101268.63;;;9.49;100.00
40073;BME280;25774;52.256;9.356;2023-02-15T12:52:02;101267.34;;;9.59;100.00
40073;BME280;25774;52.256;9.356;2023-02-15T12:54:39;101272.47;;;9.86;100.00
40073;BME280;25774;52.256;9.356;2023-02-15T12:57:48;101251.25;;;9.67;100.00
40073;BME280;25774;52.256;9.356;2023-02-15T13:02:29;101216.25;;;10.31;100.00
40073;BME280;25774;52.256;9.356;2023-02-15T13:04:56;101191.56;;;10.32;100.00
40073;BME280;25774;52.256;9.356;2023-02-15T13:07:24;101216.09;;;10.34;100.00
40073;BME280;25774;52.256;9.356;2023-02-15T13:09:50;101172.53;;;10.23;100.00
40073;BME280;25774;52.256;9.356;2023-02-15T13:12:21;101169.25;;;9.74;100.00
40073;BME280;25774;52.256;9.356;2023-02-15T13:14:51;101187.94;;;9.68;100.00
40073;BME280;25774;52.256;9.356;2023-02-15T13:17:23;101180.47;;;9.58;100.00
40073;BME280;25774;52.256;9.356;2023-02-15T13:19:54;101204.44;;;9.73;100.00
40073;BME280;25774;52.256;9.356;2023-02-15T13:22:38;101202.47;;;9.78;100.00
40073;BME280;25774;52.256;9.356;2023-02-15T13:27:43;101199.50;;;10.52;100.00
40073;BME280;25774;52.256;9.356;2023-02-15T13:30:45;101183.16;;;10.85;100.00
40073;BME280;25774;52.256;9.356;2023-02-15T13:33:26;101177.75;;;10.67;100.00
40073;BME280;25774;52.256;9.356;2023-02-15T13:36:08;101158.00;;;10.35;100.00
40073;BME280;25774;52.256;9.356;2023-02-15T13:41:20;101141.09;;;9.97;100.00
40073;BME280;25774;52.256;9.356;2023-02-15T13:44:08;101144.94;;;10.10;100.00
40073;BME280;25774;52.256;9.356;2023-02-15T13:46:48;101144.94;;;10.10;100.00
40073;BME280;25774;52.256;9.356;2023-02-15T13:52:22;101151.22;;;9.42;100.00
40073;BME280;25774;52.256;9.356;2023-02-15T13:55:21;101226.91;;;10.06;100.00
40073;BME280;25774;52.256;9.356;2023-02-15T13:58:06;101165.50;;;10.02;100.00
40073;BME280;25774;52.256;9.356;2023-02-15T14:09:20;101151.66;;;10.39;100.00
40073;BME280;25774;52.256;9.356;2023-02-15T14:17:01;101149.50;;;10.07;100.00
40073;BME280;25774;52.256;9.356;2023-02-15T14:22:18;101122.63;;;9.76;100.00
40073;BME280;25774;52.256;9.356;2023-02-15T14:30:20;101191.44;;;10.35;100.00
40073;BME280;25774;52.256;9.356;2023-02-15T14:32:49;101146.66;;;10.11;100.00
40073;BME280;25774;52.256;9.356;2023-02-15T14:35:20;101128.47;;;10.05;100.00
40073;BME280;25774;52.256;9.356;2023-02-15T14:37:55;101122.53;;;9.78;100.00
40073;BME280;25774;52.256;9.356;2023-02-15T14:43:34;101113.16;;;9.71;100.00
40073;BME280;25774;52.256;9.356;2023-02-15T14:46:46;101168.03;;;10.05;100.00
40073;BME280;25774;52.256;9.356;2023-02-15T14:49:20;101124.72;;;9.89;100.00
40073;BME280;25774;52.256;9.356;2023-02-15T14:56:47;101169.88;;;9.36;100.00
40073;BME280;25774;52.256;9.356;2023-02-15T15:04:39;101206.16;;;9.04;100.00
40073;BME280;25774;52.256;9.356;2023-02-15T15:07:19;101217.47;;;9.06;100.00